createdAt,value
2019-05-23T00:00:10.518Z,8.23
2019-05-23T00:02:49.005Z,8.48
2019-05-23T00:05:23.344Z,8.40
2019-05-23T00:07:52.585Z,8.23
2019-05-23T00:10:23.324Z,8.65
2019-05-23T00:12:55.055Z,8.80
2019-05-23T00:15:29.096Z,8.48
2019-05-23T00:18:00.518Z,8.58
2019-05-23T00:20:33.134Z,8.90
2019-05-23T00:23:03.221Z,9.20
2019-05-23T00:25:34.020Z,8.00
2019-05-23T00:28:03.641Z,8.13
2019-05-23T00:30:34.435Z,8.63
2019-05-23T00:33:05.449Z,8.68
2019-05-23T00:35:34.907Z,8.60
2019-05-23T00:38:06.168Z,8.58
2019-05-23T00:40:36.155Z,8.50
2019-05-23T00:43:07.149Z,7.97
2019-05-23T00:45:36.571Z,8.88
2019-05-23T00:48:06.900Z,8.05
2019-05-23T00:50:35.983Z,8.68
2019-05-23T00:53:05.897Z,8.73
2019-05-23T00:55:36.279Z,8.68
2019-05-23T00:58:05.671Z,8.70
2019-05-23T01:00:35.052Z,8.73
2019-05-23T01:03:05.420Z,9.33
2019-05-23T01:05:35.736Z,9.40
2019-05-23T01:08:06.899Z,9.00
2019-05-23T01:10:36.491Z,9.45
2019-05-23T01:13:06.477Z,8.65
2019-05-23T01:15:45.564Z,9.25
2019-05-23T01:18:15.472Z,9.20
2019-05-23T01:21:01.484Z,8.85
2019-05-23T01:23:32.563Z,9.20
2019-05-23T01:26:02.639Z,8.98
2019-05-23T01:28:32.189Z,9.08
2019-05-23T01:31:06.623Z,9.38
2019-05-23T01:33:37.019Z,9.43
2019-05-23T01:36:07.493Z,9.38
2019-05-23T01:38:37.881Z,9.73
2019-05-23T01:41:07.337Z,9.63
2019-05-23T01:43:36.490Z,9.13
2019-05-23T01:46:06.364Z,9.88
2019-05-23T01:48:35.691Z,9.73
2019-05-23T01:51:05.854Z,9.73
2019-05-23T01:53:36.661Z,10.43
2019-05-23T01:56:06.883Z,9.70
2019-05-23T01:58:36.059Z,9.43
2019-05-23T02:01:05.631Z,9.05
2019-05-23T02:03:35.889Z,9.58
2019-05-23T02:06:05.728Z,9.53
2019-05-23T02:08:35.803Z,9.28
2019-05-23T02:11:05.564Z,10.05
2019-05-23T02:13:35.023Z,10.40
2019-05-23T02:16:04.985Z,10.05
2019-05-23T02:18:34.146Z,9.68
2019-05-23T02:21:05.436Z,10.88
2019-05-23T02:23:34.870Z,9.88
2019-05-23T02:26:04.678Z,9.58
2019-05-23T02:28:35.117Z,9.68
2019-05-23T02:31:04.284Z,9.48
2019-05-23T02:33:33.880Z,9.88
2019-05-23T02:36:03.049Z,10.00
2019-05-23T02:38:50.370Z,9.90
2019-05-23T02:41:24.235Z,9.68
2019-05-23T02:43:57.485Z,9.88
2019-05-23T02:46:34.293Z,10.08
2019-05-23T02:49:05.252Z,9.80
2019-05-23T02:51:37.104Z,9.85
2019-05-23T02:54:09.637Z,10.58
2019-05-23T02:56:40.050Z,9.80
2019-05-23T02:59:16.893Z,10.08
2019-05-23T03:02:02.749Z,9.55
2019-05-23T03:04:33.560Z,9.95
2019-05-23T03:07:03.570Z,9.88
2019-05-23T03:09:34.181Z,9.53
2019-05-23T03:12:04.144Z,9.63
2019-05-23T03:14:34.300Z,9.80
2019-05-23T03:17:05.418Z,9.20
2019-05-23T03:19:44.845Z,9.95
2019-05-23T03:22:37.728Z,9.78
2019-05-23T03:25:16.167Z,9.13
2019-05-23T03:27:46.683Z,9.93
2019-05-23T03:30:17.694Z,10.03
2019-05-23T03:32:54.829Z,11.00
2019-05-23T03:35:25.987Z,11.30
2019-05-23T03:37:55.234Z,10.53
2019-05-23T03:40:24.662Z,9.85
2019-05-23T03:42:54.784Z,10.03
2019-05-23T03:45:25.679Z,10.43
2019-05-23T03:47:55.594Z,10.43
2019-05-23T03:50:25.934Z,10.08
2019-05-23T03:52:56.920Z,10.72
2019-05-23T03:55:28.322Z,9.93
2019-05-23T03:57:58.122Z,10.50
2019-05-23T04:00:28.865Z,10.05
2019-05-23T04:02:59.471Z,10.50
2019-05-23T04:05:29.472Z,10.53
2019-05-23T04:07:58.639Z,9.83
2019-05-23T04:10:27.798Z,10.68
2019-05-23T04:12:56.965Z,10.10
2019-05-23T04:15:28.009Z,10.88
2019-05-23T04:17:57.336Z,10.43
2019-05-23T04:20:26.664Z,10.23
2019-05-23T04:22:55.854Z,10.95
2019-05-23T04:25:25.295Z,10.65
2019-05-23T04:27:55.256Z,11.80
2019-05-23T04:30:24.476Z,11.63
2019-05-23T04:32:53.850Z,12.05
2019-05-23T04:35:24.129Z,12.28
2019-05-23T04:37:53.877Z,12.07
2019-05-23T04:40:23.251Z,11.80
2019-05-23T04:42:52.596Z,12.40
2019-05-23T04:45:22.048Z,12.10
2019-05-23T04:47:51.383Z,11.85
2019-05-23T04:50:21.330Z,30.02
2019-05-23T04:52:50.733Z,11.97
2019-05-23T04:55:21.066Z,11.57
2019-05-23T04:57:50.230Z,13.28
2019-05-23T05:00:21.571Z,12.25
2019-05-23T05:02:50.773Z,12.25
2019-05-23T05:05:20.444Z,12.45
2019-05-23T05:07:49.683Z,11.75
2019-05-23T05:10:22.366Z,11.95
2019-05-23T05:12:52.275Z,11.45
2019-05-23T05:15:22.191Z,11.73
2019-05-23T05:17:51.609Z,11.93
2019-05-23T05:20:21.235Z,11.83
2019-05-23T05:22:51.159Z,11.68
2019-05-23T05:25:20.733Z,11.20
2019-05-23T05:27:50.275Z,11.53
2019-05-23T05:30:19.810Z,10.63
2019-05-23T05:32:49.429Z,10.63
2019-05-23T05:35:19.001Z,10.60
2019-05-23T05:37:48.505Z,10.03
2019-05-23T05:40:18.488Z,10.20
2019-05-23T05:42:47.991Z,9.65
2019-05-23T05:45:17.238Z,10.93
2019-05-23T05:47:46.595Z,9.40
2019-05-23T05:50:17.370Z,9.88
2019-05-23T05:52:46.607Z,10.23
2019-05-23T05:55:15.839Z,9.05
2019-05-23T05:57:45.115Z,7.80
2019-05-23T06:00:27.120Z,7.72
2019-05-23T06:03:04.099Z,8.60
2019-05-23T06:05:46.535Z,7.83
2019-05-23T06:08:17.416Z,8.50
2019-05-23T06:10:47.007Z,8.48
2019-05-23T06:13:16.391Z,7.85
2019-05-23T06:15:45.795Z,7.90
2019-05-23T06:18:15.189Z,7.33
2019-05-23T06:20:46.560Z,7.20
2019-05-23T06:23:16.001Z,8.83
2019-05-23T06:25:45.699Z,8.13
2019-05-23T06:28:16.031Z,7.55
2019-05-23T06:30:46.441Z,7.70
2019-05-23T06:33:23.399Z,7.50
2019-05-23T06:35:47.692Z,6.80
2019-05-23T06:38:17.193Z,6.58
2019-05-23T06:40:47.259Z,6.85
2019-05-23T06:43:16.622Z,7.08
2019-05-23T06:45:45.736Z,7.37
2019-05-23T06:48:16.658Z,6.72
2019-05-23T06:50:46.098Z,7.60
2019-05-23T06:53:15.378Z,6.95
2019-05-23T06:55:44.605Z,7.00
2019-05-23T06:58:13.953Z,6.97
2019-05-23T07:00:43.370Z,7.62
2019-05-23T07:03:13.395Z,7.42
2019-05-23T07:05:44.077Z,8.00
2019-05-23T07:08:13.575Z,7.75
2019-05-23T07:10:44.669Z,7.87
2019-05-23T07:13:14.153Z,8.38
2019-05-23T07:15:43.750Z,8.50
2019-05-23T07:18:13.592Z,8.43
2019-05-23T07:20:42.770Z,8.00
2019-05-23T07:23:13.377Z,8.35
2019-05-23T07:25:42.561Z,7.90
2019-05-23T07:28:11.927Z,8.28
2019-05-23T07:30:41.146Z,7.67
2019-05-23T07:33:10.410Z,8.53
2019-05-23T07:35:39.581Z,8.00
2019-05-23T07:38:08.765Z,8.33
2019-05-23T07:40:38.112Z,9.13
2019-05-23T07:43:08.494Z,8.20
2019-05-23T07:45:46.068Z,8.43
2019-05-23T07:48:15.343Z,7.65
2019-05-23T07:50:45.521Z,8.43
2019-05-23T07:53:16.328Z,8.23
2019-05-23T07:55:56.614Z,8.53
2019-05-23T07:58:25.785Z,8.70
2019-05-23T08:00:59.301Z,8.65
2019-05-23T08:03:30.346Z,8.55
2019-05-23T08:05:59.682Z,7.78
2019-05-23T08:08:29.019Z,8.30
2019-05-23T08:10:58.123Z,8.23
2019-05-23T08:13:28.347Z,7.72
2019-05-23T08:15:57.611Z,8.10
2019-05-23T08:18:26.959Z,8.10
2019-05-23T08:20:56.137Z,7.22
2019-05-23T08:23:25.644Z,8.48
2019-05-23T08:25:55.444Z,9.05
2019-05-23T08:28:24.779Z,7.58
2019-05-23T08:30:54.746Z,8.38
2019-05-23T08:33:23.961Z,8.70
2019-05-23T08:35:54.869Z,7.85
2019-05-23T08:38:24.317Z,7.95
2019-05-23T08:40:54.531Z,8.13
2019-05-23T08:43:23.781Z,7.90
2019-05-23T08:45:53.226Z,8.78
2019-05-23T08:48:23.174Z,8.85
2019-05-23T08:50:52.543Z,8.78
2019-05-23T08:53:21.998Z,8.90
2019-05-23T08:55:51.704Z,7.72
2019-05-23T08:58:21.603Z,8.23
2019-05-23T09:00:52.127Z,8.05
2019-05-23T09:03:21.779Z,7.97
2019-05-23T09:05:52.543Z,7.47
2019-05-23T09:08:21.995Z,7.17
2019-05-23T09:10:51.188Z,7.60
2019-05-23T09:13:21.185Z,6.92
2019-05-23T09:15:53.068Z,7.03
2019-05-23T09:18:21.375Z,6.95
2019-05-23T09:20:50.553Z,7.28
2019-05-23T09:23:20.052Z,7.30
2019-05-23T09:25:49.240Z,7.60
2019-05-23T09:28:18.775Z,7.67
2019-05-23T09:30:48.231Z,8.18
2019-05-23T09:33:17.544Z,8.08
2019-05-23T09:35:46.897Z,7.08
2019-05-23T09:38:16.370Z,7.30
2019-05-23T09:40:45.919Z,7.03
2019-05-23T09:43:15.332Z,6.95
2019-05-23T09:45:44.715Z,6.78
2019-05-23T09:48:13.855Z,6.28
2019-05-23T09:50:43.142Z,6.80
2019-05-23T09:53:12.323Z,6.95
2019-05-23T09:55:41.427Z,6.62
2019-05-23T09:58:11.051Z,7.10
2019-05-23T10:00:41.820Z,6.28
2019-05-23T10:03:10.912Z,6.70
2019-05-23T10:05:43.312Z,6.03
2019-05-23T10:08:11.431Z,6.08
2019-05-23T10:10:41.396Z,6.20
2019-05-23T10:13:10.819Z,6.60
2019-05-23T10:15:41.629Z,7.03
2019-05-23T10:18:15.861Z,6.70
2019-05-23T10:20:45.185Z,7.30
2019-05-23T10:23:14.568Z,6.83
2019-05-23T10:25:43.808Z,7.22
2019-05-23T10:28:15.230Z,6.30
2019-05-23T10:30:44.542Z,6.75
2019-05-23T10:33:13.912Z,7.03
2019-05-23T10:35:58.997Z,6.30
2019-05-23T10:38:14.155Z,6.30
2019-05-23T10:40:43.646Z,5.53
2019-05-23T10:43:13.247Z,6.65
2019-05-23T10:45:42.344Z,6.78
2019-05-23T10:48:13.905Z,6.25
2019-05-23T10:50:45.203Z,6.70
2019-05-23T10:53:14.886Z,6.85
2019-05-23T10:55:44.061Z,5.47
2019-05-23T10:58:14.872Z,6.10
2019-05-23T11:00:45.021Z,5.87
2019-05-23T11:03:15.073Z,5.65
2019-05-23T11:05:44.360Z,5.03
2019-05-23T11:08:15.325Z,4.95
2019-05-23T11:10:44.565Z,4.95
2019-05-23T11:13:13.738Z,5.50
2019-05-23T11:15:43.854Z,5.90
2019-05-23T11:18:13.280Z,5.50
2019-05-23T11:20:42.604Z,6.28
2019-05-23T11:23:13.686Z,5.53
2019-05-23T11:25:43.471Z,5.28
2019-05-23T11:28:13.077Z,4.70
2019-05-23T11:30:45.654Z,4.55
2019-05-23T11:33:15.684Z,5.90
2019-05-23T11:35:46.180Z,4.80
2019-05-23T11:38:15.485Z,4.53
2019-05-23T11:40:44.935Z,4.95
2019-05-23T11:43:14.302Z,5.83
2019-05-23T11:45:47.502Z,5.70
2019-05-23T11:48:17.336Z,5.28
2019-05-23T11:50:47.047Z,5.58
2019-05-23T11:53:16.360Z,5.55
2019-05-23T11:55:46.089Z,4.85
2019-05-23T11:58:15.319Z,3.87
2019-05-23T12:00:55.503Z,4.12
2019-05-23T12:03:24.850Z,4.72
2019-05-23T12:05:54.175Z,4.47
2019-05-23T12:08:23.473Z,5.10
2019-05-23T12:10:52.614Z,5.30
2019-05-23T12:13:21.959Z,5.28
2019-05-23T12:15:51.440Z,5.00
2019-05-23T12:18:20.866Z,4.80
2019-05-23T12:20:50.664Z,4.50
2019-05-23T12:23:19.909Z,5.12
2019-05-23T12:25:49.636Z,4.80
2019-05-23T12:28:19.260Z,5.35
2019-05-23T12:30:48.721Z,4.70
2019-05-23T12:33:17.869Z,4.35
2019-05-23T12:35:47.087Z,4.87
2019-05-23T12:38:16.396Z,4.25
2019-05-23T12:40:45.560Z,4.20
2019-05-23T12:43:14.773Z,4.28
2019-05-23T12:45:43.951Z,3.77
2019-05-23T12:48:33.005Z,4.70
2019-05-23T12:51:09.708Z,4.03
2019-05-23T12:53:38.845Z,4.40
2019-05-23T12:56:08.266Z,4.03
2019-05-23T12:58:37.411Z,3.92
2019-05-23T13:01:08.311Z,4.40
2019-05-23T13:03:37.458Z,5.20
2019-05-23T13:06:08.020Z,4.30
2019-05-23T13:08:37.394Z,4.00
2019-05-23T13:11:06.687Z,4.65
2019-05-23T13:13:36.007Z,4.60
2019-05-23T13:16:05.514Z,4.40
2019-05-23T13:18:34.809Z,5.10
2019-05-23T13:21:04.237Z,5.62
2019-05-23T13:23:34.125Z,5.50
2019-05-23T13:26:09.721Z,5.22
2019-05-23T13:28:38.938Z,5.17
2019-05-23T13:31:08.294Z,5.22
2019-05-23T13:33:37.137Z,5.37
2019-05-23T13:36:06.167Z,5.10
2019-05-23T13:38:35.302Z,4.37
2019-05-23T13:41:04.406Z,5.20
2019-05-23T13:43:33.795Z,4.67
2019-05-23T13:46:02.653Z,4.40
2019-05-23T13:48:31.512Z,4.93
2019-05-23T13:51:00.689Z,4.80
2019-05-23T13:53:30.665Z,5.00
2019-05-23T13:55:59.752Z,4.60
2019-05-23T13:58:29.031Z,4.90
2019-05-23T14:00:58.269Z,4.73
2019-05-23T14:03:27.470Z,4.33
2019-05-23T14:05:56.357Z,4.10
2019-05-23T14:08:25.389Z,4.87
2019-05-23T14:10:54.973Z,4.27
2019-05-23T14:13:24.639Z,4.70
2019-05-23T14:15:54.030Z,4.23
2019-05-23T14:18:24.553Z,4.43
2019-05-23T14:20:53.545Z,4.70
2019-05-23T14:23:33.230Z,3.90
2019-05-23T14:26:02.743Z,4.40
2019-05-23T14:28:32.234Z,4.87
2019-05-23T14:31:14.351Z,4.17
2019-05-23T14:33:44.860Z,4.17
2019-05-23T14:36:31.710Z,4.10
2019-05-23T14:38:59.624Z,3.70
2019-05-23T14:41:44.205Z,3.03
2019-05-23T14:44:00.636Z,3.73
2019-05-23T14:46:31.183Z,3.97
2019-05-23T14:49:08.246Z,3.33
2019-05-23T14:51:45.097Z,3.00
2019-05-23T14:54:21.574Z,3.47
2019-05-23T14:56:50.500Z,3.37
2019-05-23T14:59:20.020Z,3.10
2019-05-23T15:01:49.752Z,2.87
2019-05-23T15:04:18.814Z,2.90
2019-05-23T15:06:47.729Z,2.43
2019-05-23T15:09:16.628Z,2.50
2019-05-23T15:11:45.666Z,2.47
2019-05-23T15:14:14.501Z,2.20
2019-05-23T15:16:43.393Z,2.40
2019-05-23T15:19:12.170Z,2.10
2019-05-23T15:21:41.418Z,1.97
2019-05-23T15:24:10.440Z,2.10
2019-05-23T15:26:39.472Z,2.00
2019-05-23T15:29:08.411Z,1.87
2019-05-23T15:31:37.327Z,2.37
2019-05-23T15:34:06.214Z,2.67
2019-05-23T15:36:35.367Z,2.27
2019-05-23T15:39:13.216Z,2.07
2019-05-23T15:41:42.223Z,2.20
2019-05-23T15:44:24.510Z,2.00
2019-05-23T15:46:41.558Z,2.40
2019-05-23T15:49:11.808Z,2.50
2019-05-23T15:51:45.066Z,2.27
2019-05-23T15:54:18.219Z,2.40
2019-05-23T15:56:51.386Z,2.70
2019-05-23T15:59:31.194Z,2.67
2019-05-23T16:02:01.679Z,2.23
2019-05-23T16:04:30.573Z,2.60
2019-05-23T16:07:00.222Z,2.60
2019-05-23T16:09:31.023Z,2.30
2019-05-23T16:12:00.100Z,1.90
2019-05-23T16:14:29.361Z,2.30
2019-05-23T16:16:58.376Z,2.43
2019-05-23T16:19:27.490Z,2.40
2019-05-23T16:21:56.734Z,2.10
2019-05-23T16:24:26.301Z,2.23
2019-05-23T16:26:55.588Z,2.20
2019-05-23T16:29:25.011Z,2.40
2019-05-23T16:31:54.172Z,2.30
2019-05-23T16:34:23.324Z,2.00
2019-05-23T16:36:52.258Z,2.00
2019-05-23T16:39:21.195Z,2.23
2019-05-23T16:41:50.128Z,2.60
2019-05-23T16:44:19.211Z,1.90
2019-05-23T16:46:48.097Z,2.43
2019-05-23T16:49:16.945Z,2.70
2019-05-23T16:51:45.832Z,1.97
2019-05-23T16:54:16.551Z,2.90
2019-05-23T16:56:55.986Z,2.00
2019-05-23T16:59:26.532Z,4.13
2019-05-23T17:02:05.575Z,2.40
2019-05-23T17:04:32.756Z,3.00
2019-05-23T17:07:03.381Z,2.50
2019-05-23T17:09:36.965Z,2.00
2019-05-23T17:12:23.913Z,1.87
2019-05-23T17:14:54.781Z,1.97
2019-05-23T17:18:00.835Z,1.50
2019-05-23T17:20:19.609Z,1.53
2019-05-23T17:22:45.997Z,1.80
2019-05-23T17:25:22.646Z,1.97
2019-05-23T17:27:56.065Z,2.10
2019-05-23T17:30:26.541Z,1.63
2019-05-23T17:32:55.909Z,1.60
2019-05-23T17:35:25.700Z,1.37
2019-05-23T17:37:54.555Z,1.80
2019-05-23T17:40:25.381Z,1.80
2019-05-23T17:42:54.011Z,1.60
2019-05-23T17:45:23.987Z,1.80
2019-05-23T17:47:53.233Z,1.73
2019-05-23T17:50:22.441Z,1.90
2019-05-23T17:52:51.287Z,1.70
2019-05-23T17:55:20.272Z,1.70
2019-05-23T17:57:49.192Z,1.30
2019-05-23T18:00:22.731Z,1.53
2019-05-23T18:02:51.599Z,1.37
2019-05-23T18:05:21.384Z,1.73
2019-05-23T18:07:50.711Z,1.65
2019-05-23T18:10:20.243Z,1.50
2019-05-23T18:12:49.381Z,2.40
2019-05-23T18:15:18.639Z,1.80
2019-05-23T18:17:49.612Z,2.08
2019-05-23T18:20:18.896Z,2.75
2019-05-23T18:22:47.761Z,2.03
2019-05-23T18:25:17.932Z,2.00
2019-05-23T18:27:47.365Z,1.90
2019-05-23T18:30:34.192Z,2.30
2019-05-23T18:33:04.306Z,2.20
2019-05-23T18:35:33.526Z,2.00
2019-05-23T18:38:03.113Z,1.67
2019-05-23T18:40:33.057Z,1.72
2019-05-23T18:43:04.476Z,1.57
2019-05-23T18:45:35.478Z,1.60
2019-05-23T18:48:04.903Z,1.80
2019-05-23T18:50:35.280Z,2.20
2019-05-23T18:53:06.469Z,16.70
2019-05-23T18:55:35.834Z,23.27
2019-05-23T18:58:05.822Z,32.48
2019-05-23T19:00:57.938Z,10.43
2019-05-23T19:03:27.533Z,4.97
2019-05-23T19:05:57.042Z,2.22
2019-05-23T19:08:27.147Z,1.80
2019-05-23T19:10:56.422Z,3.00
2019-05-23T19:13:26.754Z,2.20
2019-05-23T19:15:56.448Z,4.95
2019-05-23T19:18:26.170Z,3.67
2019-05-23T19:20:56.327Z,1.98
2019-05-23T19:23:26.024Z,2.10
2019-05-23T19:25:55.444Z,2.00
2019-05-23T19:28:25.665Z,3.10
2019-05-23T19:30:55.105Z,3.85
2019-05-23T19:33:25.070Z,2.52
2019-05-23T19:35:55.027Z,2.42
2019-05-23T19:38:25.360Z,2.58
2019-05-23T19:40:54.481Z,2.80
2019-05-23T19:43:23.693Z,2.50
2019-05-23T19:45:53.281Z,2.47
2019-05-23T19:48:23.286Z,3.00
2019-05-23T19:50:53.021Z,2.35
2019-05-23T19:53:22.345Z,2.62
2019-05-23T19:55:52.248Z,2.52
2019-05-23T19:58:21.541Z,2.60
2019-05-23T20:00:51.400Z,2.40
2019-05-23T20:03:20.668Z,2.60
2019-05-23T20:05:51.448Z,2.47
2019-05-23T20:08:20.823Z,2.37
2019-05-23T20:10:50.064Z,2.95
2019-05-23T20:13:19.297Z,2.70
2019-05-23T20:15:49.029Z,6.35
2019-05-23T20:18:18.723Z,9.90
2019-05-23T20:20:48.054Z,3.85
2019-05-23T20:23:17.882Z,3.60
2019-05-23T20:25:47.033Z,4.45
2019-05-23T20:28:16.154Z,3.62
2019-05-23T20:30:52.623Z,3.08
2019-05-23T20:33:22.108Z,3.05
2019-05-23T20:35:51.607Z,2.70
2019-05-23T20:38:20.891Z,2.77
2019-05-23T20:40:50.036Z,2.72
2019-05-23T20:43:19.353Z,2.65
2019-05-23T20:45:48.760Z,2.90
2019-05-23T20:48:18.440Z,3.30
2019-05-23T20:50:47.733Z,3.30
2019-05-23T20:53:17.008Z,3.10
2019-05-23T20:55:46.350Z,2.95
2019-05-23T20:58:15.939Z,2.95
2019-05-23T21:00:49.869Z,3.00
2019-05-23T21:03:19.510Z,3.50
2019-05-23T21:05:48.866Z,5.08
2019-05-23T21:08:18.019Z,3.15
2019-05-23T21:10:48.714Z,2.90
2019-05-23T21:13:18.312Z,3.67
2019-05-23T21:15:47.809Z,3.83
2019-05-23T21:18:17.049Z,3.15
2019-05-23T21:20:46.242Z,3.08
2019-05-23T21:23:15.509Z,3.37
2019-05-23T21:25:46.534Z,3.10
2019-05-23T21:28:15.735Z,3.15
2019-05-23T21:30:44.957Z,3.12
2019-05-23T21:33:15.683Z,3.40
2019-05-23T21:35:44.889Z,3.50
2019-05-23T21:38:14.047Z,5.20
2019-05-23T21:40:44.778Z,3.87
2019-05-23T21:43:14.279Z,4.72
2019-05-23T21:45:43.476Z,4.45
2019-05-23T21:48:12.879Z,4.08
2019-05-23T21:50:42.280Z,4.45
2019-05-23T21:53:11.419Z,3.58
2019-05-23T21:55:42.051Z,3.87
2019-05-23T21:58:12.854Z,3.83
2019-05-23T22:00:58.311Z,3.70
2019-05-23T22:03:27.858Z,3.80
2019-05-23T22:05:57.001Z,3.75
2019-05-23T22:08:26.211Z,4.10
2019-05-23T22:10:55.535Z,3.65
2019-05-23T22:13:24.979Z,3.90
2019-05-23T22:15:56.335Z,3.83
2019-05-23T22:18:25.816Z,3.98
2019-05-23T22:20:55.580Z,4.10
2019-05-23T22:23:24.726Z,4.03
2019-05-23T22:25:54.162Z,3.98
2019-05-23T22:28:23.483Z,3.90
2019-05-23T22:30:52.690Z,4.40
2019-05-23T22:33:23.409Z,4.00
2019-05-23T22:35:52.493Z,3.77
2019-05-23T22:38:21.571Z,4.03
2019-05-23T22:40:50.824Z,4.45
2019-05-23T22:43:21.337Z,4.58
2019-05-23T22:45:50.854Z,4.33
2019-05-23T22:48:20.297Z,4.40
2019-05-23T22:50:49.451Z,4.67
2019-05-23T22:53:19.010Z,4.92
2019-05-23T22:55:48.151Z,4.75
2019-05-23T22:58:17.832Z,4.70
2019-05-23T23:00:48.569Z,5.35
2019-05-23T23:03:17.789Z,4.87
2019-05-23T23:05:46.959Z,4.35
2019-05-23T23:08:17.207Z,5.25
2019-05-23T23:10:46.369Z,4.55
2019-05-23T23:13:16.275Z,5.12
2019-05-23T23:15:45.445Z,5.05
2019-05-23T23:18:14.644Z,4.83
2019-05-23T23:20:45.901Z,4.95
2019-05-23T23:23:14.602Z,5.30
2019-05-23T23:25:43.680Z,5.10
2019-05-23T23:28:12.820Z,5.70
2019-05-23T23:30:44.520Z,5.72
2019-05-23T23:33:13.730Z,5.17
2019-05-23T23:35:42.900Z,5.25
2019-05-23T23:38:12.044Z,5.40
2019-05-23T23:40:41.197Z,5.35
2019-05-23T23:43:10.508Z,5.53
2019-05-23T23:45:57.623Z,5.15
2019-05-23T23:48:44.922Z,5.05
2019-05-23T23:51:32.006Z,5.40
2019-05-23T23:54:19.050Z,5.15
2019-05-23T23:57:06.011Z,5.00
2019-05-23T23:59:34.472Z,5.37
